Time;durP1;ratioP1;P1;durP2;ratioP2;P2;SDS_P1;SDS_P2;PMS_P1;PMS_P2;Temp;Humidity;BMP_temperature;BMP_pressure;BME280_temperature;BME280_humidity;BME280_pressure;Samples;Min_cycle;Max_cycle;Signal;HPM_P1;HPM_P2
2022/07/22 00:01:14;;;;;;;;;32.25;28.75;;;;;20.88;100.00;101612.34;4942557;28;44836;-87
2022/07/22 00:03:42;;;;;;;;;30.00;23.00;;;;;20.87;100.00;101621.44;4941867;28;45301;-87
2022/07/22 00:06:09;;;;;;;;;31.25;29.00;;;;;20.84;100.00;101609.09;4941943;28;45445;-88
2022/07/22 00:08:35;;;;;;;;;34.50;32.25;;;;;20.79;100.00;101608.66;4946926;28;45105;-86
2022/07/22 00:11:02;;;;;;;;;30.00;27.75;;;;;20.79;100.00;101609.56;4948205;28;44823;-87
2022/07/22 00:13:27;;;;;;;;;24.50;24.50;;;;;20.76;100.00;101614.38;4944012;28;44681;-87
2022/07/22 00:15:53;;;;;;;;;25.50;23.50;;;;;20.69;100.00;101616.81;4947754;28;45158;-87
2022/07/22 00:18:19;;;;;;;;;30.00;29.25;;;;;20.63;100.00;101619.25;4954797;28;46598;-87
2022/07/22 00:21:01;;;;;;;;;34.75;30.50;;;;;20.57;100.00;101625.25;4953947;28;44747;-87
2022/07/22 00:23:27;;;;;;;;;28.75;26.00;;;;;20.55;100.00;101622.72;4959705;28;44804;-88
2022/07/22 00:25:53;;;;;;;;;26.50;20.50;;;;;20.51;100.00;101616.75;4948964;28;44975;-86
2022/07/22 00:28:19;;;;;;;;;31.75;28.50;;;;;20.45;100.00;101621.81;4955038;28;45043;-87
2022/07/22 00:30:45;;;;;;;;;29.00;27.75;;;;;20.40;100.00;101626.78;4954557;28;44708;-86
2022/07/22 00:33:11;;;;;;;;;34.00;30.25;;;;;20.34;100.00;101614.75;4947519;28;44790;-86
2022/07/22 00:35:37;;;;;;;;;20.75;20.50;;;;;20.28;100.00;101610.78;4943692;28;45200;-87
2022/07/22 00:44:23;;;;;;;;;28.00;23.50;;;;;20.17;100.00;101602.84;4953011;28;44776;-91
2022/07/22 00:50:14;;;;;;;;;30.00;27.00;;;;;20.10;100.00;101600.84;4951388;28;45008;-91
2022/07/22 00:52:43;;;;;;;;;29.50;25.00;;;;;20.06;100.00;101594.03;4935900;28;44754;-91
2022/07/22 00:55:10;;;;;;;;;29.25;26.75;;;;;20.03;100.00;101590.66;4950916;28;44591;-91
2022/07/22 00:57:37;;;;;;;;;27.50;25.50;;;;;20.00;100.00;101584.69;4962397;28;44856;-91
2022/07/22 01:00:09;;;;;;;;;29.50;22.00;;;;;19.93;100.00;101581.72;4972408;28;45354;-92
2022/07/22 01:02:34;;;;;;;;;26.00;24.00;;;;;19.89;100.00;101583.00;4953004;28;44713;-91
2022/07/22 01:05:01;;;;;;;;;28.75;24.25;;;;;19.90;100.00;101587.38;4949323;28;44666;-92
2022/07/22 01:07:27;;;;;;;;;29.00;25.50;;;;;19.86;100.00;101587.81;4952605;28;44785;-92
2022/07/22 01:09:58;;;;;;;;;27.75;21.50;;;;;19.82;100.00;101583.69;4949807;28;45019;-91
2022/07/22 01:12:24;;;;;;;;;26.50;24.00;;;;;19.77;100.00;101579.59;4948244;28;44611;-91
2022/07/22 01:14:49;;;;;;;;;30.75;26.50;;;;;19.77;100.00;101579.59;4945874;28;44700;-91
2022/07/22 01:17:27;;;;;;;;;24.50;23.25;;;;;19.73;100.00;101580.03;4944997;28;45174;-91
2022/07/22 01:19:53;;;;;;;;;27.25;23.25;;;;;19.72;100.00;101586.38;4945644;28;45137;-90
2022/07/22 01:22:19;;;;;;;;;28.50;22.25;;;;;19.70;100.00;101591.06;4928505;28;44755;-91
2022/07/22 01:24:47;;;;;;;;;21.00;17.50;;;;;19.67;100.00;101591.34;4945479;28;44749;-92
2022/07/22 01:27:18;;;;;;;;;25.75;21.50;;;;;19.61;100.00;101581.13;4944650;28;45040;-91
2022/07/22 01:29:43;;;;;;;;;23.25;23.25;;;;;19.63;100.00;101588.09;4929561;28;45180;-91
2022/07/22 01:32:12;;;;;;;;;24.75;23.00;;;;;19.57;100.00;101579.66;4960245;28;44880;-91
2022/07/22 01:35:02;;;;;;;;;19.50;17.25;;;;;19.52;100.00;101580.94;4946568;28;44645;-92
2022/07/22 01:37:28;;;;;;;;;27.00;23.00;;;;;19.50;100.00;101590.19;4970909;28;44967;-91
2022/07/22 01:39:56;;;;;;;;;27.00;24.75;;;;;19.48;100.00;101584.91;4952319;28;45046;-92
2022/07/22 01:42:25;;;;;;;;;30.00;21.50;;;;;19.46;100.00;101584.19;4964213;28;44744;-92
2022/07/22 01:44:58;;;;;;;;;18.75;18.50;;;;;19.43;100.00;101583.63;4950990;28;45145;-92
2022/07/22 01:47:36;;;;;;;;;22.50;22.50;;;;;19.41;100.00;101586.47;4953427;28;44896;-92
2022/07/22 01:50:04;;;;;;;;;27.25;23.50;;;;;19.38;100.00;101580.50;4949842;28;46713;-92
2022/07/22 01:52:30;;;;;;;;;23.00;22.25;;;;;19.33;100.00;101574.69;4962554;28;44867;-91
2022/07/22 01:54:56;;;;;;;;;23.00;18.75;;;;;19.30;100.00;101583.06;4960056;28;44796;-92
2022/07/22 01:57:26;;;;;;;;;21.75;20.75;;;;;19.26;100.00;101575.25;4946639;28;44804;-91
2022/07/22 01:59:52;;;;;;;;;24.00;23.25;;;;;19.29;100.00;101578.63;4947871;28;45127;-91
2022/07/22 02:05:46;;;;;;;;;31.75;23.50;;;;;19.24;100.00;101579.94;4950142;28;44633;-91
2022/07/22 02:08:13;;;;;;;;;26.00;21.75;;;;;19.21;100.00;101576.66;4949464;28;44825;-91
2022/07/22 02:10:39;;;;;;;;;24.00;19.75;;;;;19.17;100.00;101567.97;4952378;28;45073;-91
2022/07/22 02:13:10;;;;;;;;;24.25;23.00;;;;;19.17;100.00;101567.97;4969526;28;44642;-91
2022/07/22 02:15:37;;;;;;;;;18.50;18.50;;;;;19.17;100.00;101573.38;4940039;28;44700;-92
2022/07/22 02:18:22;;;;;;;;;25.25;24.00;;;;;19.14;100.00;101570.94;4948817;28;44895;-91
2022/07/22 02:20:54;;;;;;;;;23.25;21.25;;;;;19.11;100.00;101563.16;4964639;28;45269;-91
2022/07/22 02:23:20;;;;;;;;;19.50;19.50;;;;;19.13;100.00;101571.09;4946906;28;44808;-87
2022/07/22 02:25:46;;;;;;;;;19.25;16.75;;;;;19.10;100.00;101576.75;4945728;28;45454;-87
2022/07/22 02:28:11;;;;;;;;;19.25;18.00;;;;;19.07;100.00;101560.88;4943201;28;45615;-87
2022/07/22 02:30:38;;;;;;;;;25.75;20.25;;;;;19.06;100.00;101570.81;4963751;28;46522;-87
2022/07/22 02:33:04;;;;;;;;;23.00;19.75;;;;;19.08;100.00;101567.97;4947366;28;45185;-87
2022/07/22 02:35:31;;;;;;;;;23.75;20.50;;;;;19.06;100.00;101572.66;4947414;28;45171;-91
2022/07/22 02:38:00;;;;;;;;;28.75;22.00;;;;;18.99;100.00;101564.25;4963309;28;44806;-91
2022/07/22 02:40:28;;;;;;;;;41.50;35.00;;;;;18.97;100.00;101561.69;4949426;28;45136;-91
2022/07/22 02:42:54;;;;;;;;;31.25;23.25;;;;;18.99;100.00;101578.56;4948737;28;44733;-92
2022/07/22 02:45:23;;;;;;;;;23.25;20.25;;;;;19.00;100.00;101579.41;4947403;28;44693;-87
2022/07/22 02:47:51;;;;;;;;;25.00;24.25;;;;;18.99;100.00;101577.72;4951102;28;44907;-87
2022/07/22 02:50:16;;;;;;;;;25.25;19.75;;;;;18.96;100.00;101567.22;4955268;28;45246;-87
2022/07/22 02:52:43;;;;;;;;;28.00;24.50;;;;;18.95;100.00;101576.28;4955361;28;44847;-86
2022/07/22 02:55:09;;;;;;;;;18.75;17.25;;;;;18.91;100.00;101559.56;4950747;28;45244;-87
2022/07/22 02:57:35;;;;;;;;;25.00;21.25;;;;;18.91;100.00;101564.94;4949215;28;44894;-87
2022/07/22 03:00:00;;;;;;;;;23.00;18.00;;;;;18.90;100.00;101568.59;4944802;28;45444;-88
2022/07/22 03:02:26;;;;;;;;;21.75;21.75;;;;;18.86;100.00;101569.88;4948317;28;44920;-86
2022/07/22 03:04:51;;;;;;;;;19.25;16.50;;;;;18.87;100.00;101565.34;4947143;28;45301;-86
2022/07/22 03:07:17;;;;;;;;;19.75;18.00;;;;;18.83;100.00;101562.06;4949130;28;44736;-87
2022/07/22 03:09:45;;;;;;;;;23.50;22.75;;;;;18.82;100.00;101565.75;4963984;28;45305;-86
2022/07/22 03:12:10;;;;;;;;;23.40;18.80;;;;;18.77;100.00;101554.53;4964533;28;44638;-87
2022/07/22 03:14:36;;;;;;;;;27.25;22.25;;;;;18.79;100.00;101565.16;4935296;28;45239;-88
2022/07/22 03:17:02;;;;;;;;;22.75;20.75;;;;;18.72;100.00;101549.56;4923456;28;44898;-87
2022/07/22 03:19:27;;;;;;;;;19.75;17.25;;;;;18.70;100.00;101551.53;4924467;28;45208;-87
2022/07/22 03:21:53;;;;;;;;;22.25;21.25;;;;;18.74;100.00;101561.03;4924335;28;44953;-86
2022/07/22 03:24:18;;;;;;;;;21.25;19.50;;;;;18.75;100.00;101556.50;4923487;28;45301;-87
2022/07/22 03:26:44;;;;;;;;;21.50;20.25;;;;;18.74;100.00;101557.50;4928511;28;44687;-87
2022/07/22 03:29:09;;;;;;;;;24.75;23.25;;;;;18.73;100.00;101558.50;4929459;28;44916;-87
2022/07/22 03:31:35;;;;;;;;;26.50;23.25;;;;;18.68;100.00;101556.22;4927864;28;45278;-87
2022/07/22 03:34:01;;;;;;;;;23.75;23.75;;;;;18.69;100.00;101554.34;4926439;28;45215;-87
2022/07/22 03:36:28;;;;;;;;;29.75;24.00;;;;;18.67;100.00;101556.31;4929240;28;44759;-87
2022/07/22 03:38:54;;;;;;;;;27.75;20.25;;;;;18.64;100.00;101552.03;4928437;28;45415;-87
2022/07/22 03:41:20;;;;;;;;;25.00;17.50;;;;;18.65;100.00;101559.13;4931600;28;45312;-86
2022/07/22 03:43:45;;;;;;;;;22.25;20.75;;;;;18.64;100.00;101548.50;4930785;28;45366;-88
2022/07/22 03:46:11;;;;;;;;;21.00;21.00;;;;;18.61;100.00;101557.69;4928902;28;45335;-87
2022/07/22 03:48:36;;;;;;;;;16.75;16.00;;;;;18.56;100.00;101548.31;4927613;28;45382;-87
2022/07/22 03:51:02;;;;;;;;;24.00;20.50;;;;;18.52;100.00;101554.94;4924293;28;45412;-87
2022/07/22 03:53:33;;;;;;;;;26.25;21.25;;;;;18.49;100.00;101548.00;4926155;28;45501;-87
2022/07/22 03:56:00;;;;;;;;;18.75;17.75;;;;;18.45;100.00;101541.19;4935148;28;45239;-87
2022/07/22 03:58:27;;;;;;;;;19.25;17.25;;;;;18.45;100.00;101544.72;4931359;28;47146;-88
2022/07/22 04:00:53;;;;;;;;;21.75;20.25;;;;;18.43;100.00;101544.03;4930122;28;44628;-87
2022/07/22 04:03:19;;;;;;;;;17.75;17.00;;;;;18.44;100.00;101553.78;4934183;28;45245;-87
2022/07/22 04:05:45;;;;;;;;;23.00;18.25;;;;;18.45;100.00;101551.94;4933701;28;44828;-87
2022/07/22 04:08:11;;;;;;;;;23.50;19.00;;;;;18.43;100.00;101548.56;4929884;28;45243;-87
2022/07/22 04:10:36;;;;;;;;;20.50;18.00;;;;;18.44;100.00;101555.63;4926375;28;44786;-87
2022/07/22 04:13:02;;;;;;;;;22.00;19.75;;;;;18.36;100.00;101558.13;4926497;28;44825;-87
2022/07/22 04:15:28;;;;;;;;;20.25;18.50;;;;;18.31;100.00;101554.97;4924381;28;44856;-87
2022/07/22 04:17:53;;;;;;;;;16.75;14.25;;;;;18.28;100.00;101549.88;4925897;28;45033;-87
2022/07/22 04:20:19;;;;;;;;;25.50;20.50;;;;;18.28;100.00;101550.75;4926010;28;45287;-87
2022/07/22 04:22:44;;;;;;;;;24.75;22.00;;;;;18.28;100.00;101548.06;4937916;28;45320;-87
2022/07/22 04:25:10;;;;;;;;;27.00;20.00;;;;;18.31;100.00;101550.44;4945716;28;44812;-87
2022/07/22 04:27:36;;;;;;;;;18.00;14.75;;;;;18.26;100.00;101543.78;4946395;28;45077;-87
2022/07/22 04:30:05;;;;;;;;;22.60;19.40;;;;;18.29;100.00;101539.00;4947160;28;44753;-86
2022/07/22 04:32:30;;;;;;;;;25.00;19.50;;;;;18.34;100.00;101546.66;4947244;28;45045;-86
2022/07/22 04:34:56;;;;;;;;;21.50;20.00;;;;;18.39;100.00;101539.88;4943940;28;44915;-87
2022/07/22 04:37:21;;;;;;;;;27.75;20.50;;;;;18.43;100.00;101535.94;4946100;28;45060;-87
2022/07/22 04:39:47;;;;;;;;;19.75;16.25;;;;;18.48;100.00;101533.72;4946459;28;44779;-86
2022/07/22 04:42:13;;;;;;;;;18.25;15.75;;;;;18.56;100.00;101538.41;4947119;28;44858;-87
2022/07/22 04:44:38;;;;;;;;;29.75;20.50;;;;;18.63;100.00;101536.88;4942768;28;44776;-87
2022/07/22 04:47:04;;;;;;;;;22.00;16.00;;;;;18.70;100.00;101534.53;4925264;28;46866;-87
2022/07/22 04:49:29;;;;;;;;;18.50;12.00;;;;;18.80;100.00;101531.88;4924131;28;44711;-88
2022/07/22 04:51:55;;;;;;;;;16.75;16.25;;;;;18.87;100.00;101524.97;4922783;28;45219;-87
2022/07/22 04:54:20;;;;;;;;;22.25;18.75;;;;;18.93;100.00;101533.34;4925063;28;45372;-87
2022/07/22 04:56:46;;;;;;;;;20.50;16.25;;;;;19.03;100.00;101524.44;4927866;28;45291;-87
2022/07/22 04:59:11;;;;;;;;;19.50;12.75;;;;;19.13;100.00;101520.75;4925493;28;45362;-87
2022/07/22 05:01:37;;;;;;;;;20.50;18.75;;;;;19.21;100.00;101523.63;4941427;28;44724;-87
2022/07/22 05:04:03;;;;;;;;;24.25;20.50;;;;;19.32;100.00;101514.53;4938922;28;44946;-86
2022/07/22 05:06:28;;;;;;;;;22.50;18.25;;;;;19.43;100.00;101506.31;4936448;28;44911;-87
2022/07/22 05:08:54;;;;;;;;;22.75;18.00;;;;;19.56;100.00;101502.50;4927438;28;45482;-87
2022/07/22 05:11:20;;;;;;;;;14.00;14.00;;;;;19.59;100.00;101502.22;4926247;28;45218;-88
2022/07/22 05:13:45;;;;;;;;;15.00;12.75;;;;;19.72;100.00;101508.19;4930163;28;44836;-88
2022/07/22 05:16:10;;;;;;;;;20.50;17.50;;;;;19.71;100.00;101504.66;4931596;28;45111;-87
2022/07/22 05:18:42;;;;;;;;;21.50;19.00;;;;;19.79;100.00;101511.19;4932072;28;44812;-87
2022/07/22 05:21:07;;;;;;;;;26.00;24.25;;;;;19.87;100.00;101508.59;4934935;28;45387;-87
2022/07/22 05:23:34;;;;;;;;;24.50;19.25;;;;;19.92;100.00;101503.63;4936456;28;44912;-86
2022/07/22 05:26:00;;;;;;;;;17.50;17.25;;;;;20.03;100.00;101506.19;4937717;28;45241;-87
2022/07/22 05:28:25;;;;;;;;;18.25;14.50;;;;;20.16;100.00;101506.72;4937104;28;44705;-86
2022/07/22 05:30:50;;;;;;;;;20.00;17.00;;;;;20.40;100.00;101505.34;4936481;28;44686;-87
2022/07/22 05:33:16;;;;;;;;;18.50;15.50;;;;;20.62;100.00;101494.22;4936289;28;45016;-88
2022/07/22 05:35:41;;;;;;;;;7.75;5.50;;;;;20.83;100.00;101495.78;4932410;28;47009;-86
2022/07/22 05:38:07;;;;;;;;;17.25;15.00;;;;;20.88;100.00;101496.19;4929626;28;44717;-87
2022/07/22 05:40:32;;;;;;;;;16.75;16.75;;;;;20.91;100.00;101494.03;4943316;28;44827;-88
2022/07/22 05:42:58;;;;;;;;;16.75;16.50;;;;;21.00;100.00;101495.00;4935000;28;45391;-87
2022/07/22 05:45:26;;;;;;;;;14.75;13.50;;;;;21.03;100.00;101491.97;4929992;28;45036;-87
2022/07/22 05:47:52;;;;;;;;;19.00;15.80;;;;;21.17;100.00;101493.31;4937918;28;44827;-87
2022/07/22 05:50:17;;;;;;;;;18.50;18.50;;;;;21.17;100.00;101477.09;4924642;28;44896;-87
2022/07/22 05:52:42;;;;;;;;;18.50;16.25;;;;;21.11;100.00;101478.56;4937557;28;44833;-88
2022/07/22 05:55:09;;;;;;;;;17.25;15.75;;;;;21.21;100.00;101481.19;4922126;28;45949;-87
2022/07/22 05:57:35;;;;;;;;;14.80;13.40;;;;;21.46;100.00;101479.59;4922743;28;44638;-87
2022/07/22 06:00:02;;;;;;;;;13.75;13.75;;;;;21.40;100.00;101472.94;4932590;28;44769;-87
2022/07/22 06:02:28;;;;;;;;;15.20;13.00;;;;;21.46;100.00;101485.84;4930738;28;44829;-87
2022/07/22 06:04:54;;;;;;;;;13.40;13.40;;;;;21.51;100.00;101475.41;4924014;28;45232;-87
2022/07/22 06:07:20;;;;;;;;;17.40;16.60;;;;;21.51;100.00;101472.72;4921984;28;44780;-88
2022/07/22 06:09:46;;;;;;;;;20.75;17.50;;;;;21.70;100.00;101460.00;4921467;28;44780;-87
2022/07/22 06:12:11;;;;;;;;;21.75;18.50;;;;;21.77;100.00;101467.34;4921876;28;44899;-87
2022/07/22 06:14:37;;;;;;;;;13.75;12.75;;;;;21.83;100.00;101462.31;4938067;28;45269;-88
2022/07/22 06:17:03;;;;;;;;;17.25;16.50;;;;;21.81;100.00;101470.59;4940171;28;44846;-88
2022/07/22 06:19:29;;;;;;;;;16.75;16.50;;;;;21.55;100.00;101478.66;4941681;28;45303;-87
2022/07/22 06:21:55;;;;;;;;;16.00;13.25;;;;;21.49;100.00;101488.25;4943442;28;45379;-87
2022/07/22 06:24:22;;;;;;;;;6.75;6.00;;;;;21.57;100.00;101483.94;4942942;28;45163;-87
2022/07/22 06:26:49;;;;;;;;;17.00;14.80;;;;;21.71;100.00;101486.94;4943117;28;45213;-87
2022/07/22 06:29:14;;;;;;;;;24.60;20.40;;;;;21.59;100.00;101482.75;4944401;28;44839;-88
2022/07/22 06:31:40;;;;;;;;;23.25;17.50;;;;;21.55;100.00;101478.66;4942061;28;44856;-87
2022/07/22 06:34:07;;;;;;;;;20.75;20.75;;;;;21.64;100.00;101475.03;4945221;28;44969;-88
2022/07/22 06:36:33;;;;;;;;;24.20;20.00;;;;;21.85;100.00;101477.38;4954858;28;45323;-88
2022/07/22 06:38:58;;;;;;;;;20.25;18.25;;;;;;;;4952733;28;44724;-87
2022/07/22 06:41:24;;;;;;;;;21.25;20.00;;;;;22.19;100.00;101474.78;4947205;28;45190;-88
2022/07/22 06:43:49;;;;;;;;;22.00;22.00;;;;;22.31;100.00;101478.03;4950824;28;45221;-87
2022/07/22 06:46:15;;;;;;;;;23.50;20.50;;;;;22.28;100.00;101475.63;4951870;28;44790;-87
2022/07/22 06:48:41;;;;;;;;;28.75;26.50;;;;;22.20;100.00;101473.75;4950541;28;44811;-88
2022/07/22 06:51:06;;;;;;;;;19.00;16.00;;;;;22.28;100.00;101471.06;4947629;28;45134;-87
2022/07/22 06:53:32;;;;;;;;;19.25;16.75;;;;;22.17;100.00;101476.78;4944450;28;45553;-88
2022/07/22 06:55:58;;;;;;;;;19.40;17.40;;;;;22.02;100.00;101481.91;4946076;28;44732;-88
2022/07/22 06:58:23;;;;;;;;;22.00;16.75;;;;;22.11;100.00;101479.25;4947097;28;44824;-87
2022/07/22 07:00:49;;;;;;;;;23.50;20.75;;;;;22.15;100.00;101477.97;4942926;28;44772;-87
2022/07/22 07:03:14;;;;;;;;;18.50;16.75;;;;;22.35;100.00;101487.53;4945273;28;45087;-87
2022/07/22 07:05:40;;;;;;;;;19.75;16.25;;;;;22.40;100.00;101487.91;4945241;28;44912;-88
2022/07/22 07:08:05;;;;;;;;;15.75;12.75;;;;;22.35;100.00;101484.00;4948518;28;44766;-88
2022/07/22 07:10:31;;;;;;;;;19.75;18.25;;;;;22.42;100.00;101488.56;4952066;28;44947;-87
2022/07/22 07:12:58;;;;;;;;;22.50;21.50;;;;;22.29;100.00;101489.03;4957832;28;45292;-88
2022/07/22 07:15:24;;;;;;;;;24.00;20.60;;;;;22.53;100.00;101482.91;4965863;28;44755;-87
2022/07/22 07:17:51;;;;;;;;;13.80;13.20;;;;;22.82;100.00;101484.34;4949994;28;44761;-87
2022/07/22 07:20:17;;;;;;;;;21.00;18.00;;;;;22.81;100.00;101475.34;4948720;28;45241;-88
2022/07/22 07:22:43;;;;;;;;;24.50;18.50;;;;;22.89;100.00;101460.19;4947736;28;47028;-87
2022/07/22 07:25:09;;;;;;;;;15.50;12.75;;;;;22.94;100.00;101461.38;4947718;28;44803;-88
2022/07/22 07:27:35;;;;;;;;;22.00;18.00;;;;;23.04;100.00;101467.50;4947567;28;44812;-86
2022/07/22 07:30:01;;;;;;;;;17.00;15.50;;;;;23.36;100.00;101467.72;4951845;28;44940;-87
2022/07/22 07:32:26;;;;;;;;;20.25;16.00;;;;;23.67;100.00;101460.63;4949326;28;45320;-88
2022/07/22 07:34:52;;;;;;;;;18.00;17.50;;;;;23.99;100.00;101461.63;4943269;28;44747;-87
2022/07/22 07:37:18;;;;;;;;;19.50;18.50;;;;;24.21;100.00;101447.28;4941421;28;45459;-87
2022/07/22 07:39:43;;;;;;;;;21.00;14.75;;;;;24.26;100.00;101455.75;4943043;28;44859;-88
2022/07/22 07:42:09;;;;;;;;;12.25;9.25;;;;;24.43;100.00;101458.47;4945882;28;45015;-87
2022/07/22 07:44:34;;;;;;;;;21.50;19.00;;;;;24.55;100.00;101457.03;4951057;28;44720;-87
2022/07/22 07:47:00;;;;;;;;;17.75;14.50;;;;;24.52;100.00;101462.84;4969906;28;45355;-87
2022/07/22 07:49:25;;;;;;;;;22.75;19.75;;;;;24.51;100.00;101464.69;4946256;28;44791;-87
2022/07/22 07:51:51;;;;;;;;;20.00;13.50;;;;;24.44;100.00;101455.56;4942546;28;45315;-87
2022/07/22 07:54:17;;;;;;;;;32.75;31.50;;;;;24.47;100.00;101465.25;4942505;28;44747;-88
2022/07/22 07:56:42;;;;;;;;;26.50;22.50;;;;;24.66;100.00;101469.38;4943903;28;44785;-87
2022/07/22 07:59:09;;;;;;;;;25.50;24.50;;;;;24.63;100.00;101467.03;4944656;28;44813;-87
2022/07/22 08:01:34;;;;;;;;;29.00;23.25;;;;;24.76;100.00;101470.88;4942119;28;45330;-93
2022/07/22 08:04:01;;;;;;;;;20.75;19.75;;;;;24.80;100.00;101468.63;4960502;28;44733;-91
2022/07/22 08:06:27;;;;;;;;;19.60;18.60;;;;;24.76;100.00;101462.72;4967384;28;44806;-92
2022/07/22 08:08:52;;;;;;;;;15.75;14.50;;;;;24.89;100.00;101459.41;4965752;28;44988;-92
2022/07/22 08:11:18;;;;;;;;;16.00;14.00;;;;;25.08;100.00;101464.41;4948281;28;45337;-91
2022/07/22 08:13:43;;;;;;;;;26.75;26.00;;;;;25.38;100.00;101459.09;4949710;28;44753;-91
2022/07/22 08:16:09;;;;;;;;;14.25;14.25;;;;;25.36;100.00;101453.84;4951744;28;44635;-92
2022/07/22 08:18:36;;;;;;;;;18.00;16.00;;;;;25.47;100.00;101458.00;4970899;28;45517;-92
2022/07/22 08:21:02;;;;;;;;;20.40;18.40;;;;;25.59;100.00;101450.28;4955517;28;45238;-91
2022/07/22 08:23:28;;;;;;;;;19.75;17.50;;;;;25.71;100.00;101453.38;4952310;28;44686;-92
2022/07/22 08:25:53;;;;;;;;;24.00;20.00;;;;;25.66;100.00;101443.03;4951986;28;44786;-93
2022/07/22 08:28:19;;;;;;;;;17.75;15.25;;;;;25.69;100.00;101442.69;4950337;28;45003;-92
2022/07/22 08:30:46;;;;;;;;;16.50;15.25;;;;;25.64;100.00;101436.97;4945022;28;46726;-92
2022/07/22 08:33:11;;;;;;;;;16.80;14.00;;;;;25.66;100.00;101448.50;4961949;28;44767;-92
2022/07/22 08:35:37;;;;;;;;;12.25;12.00;;;;;25.51;100.00;101443.00;4964099;28;44692;-92
2022/07/22 08:38:05;;;;;;;;;18.75;15.00;;;;;25.51;100.00;101439.44;4963667;28;44877;-92
2022/07/22 08:40:31;;;;;;;;;16.80;13.20;;;;;25.41;100.00;101438.84;4953426;28;45054;-92
2022/07/22 08:46:19;;;;;;;;;17.40;15.40;;;;;25.52;100.00;101441.97;4952757;28;44682;-88
2022/07/22 08:48:45;;;;;;;;;20.25;15.25;;;;;25.59;100.00;101436.66;4949352;28;44947;-88
2022/07/22 08:51:11;;;;;;;;;22.80;16.20;;;;;25.79;100.00;101432.41;4949283;28;45396;-88
2022/07/22 08:53:37;;;;;;;;;12.00;12.00;;;;;25.99;100.00;101427.25;4970544;28;44740;-92
2022/07/22 08:56:06;;;;;;;;;15.60;14.40;;;;;26.15;100.00;101420.78;4955793;28;44689;-92
2022/07/22 08:58:31;;;;;;;;;17.00;16.00;;;;;26.11;100.00;101411.31;4965230;28;44992;-92
2022/07/22 09:01:12;;;;;;;;;13.50;13.50;;;;;25.91;100.00;101391.94;4950665;28;44921;-92
2022/07/22 09:03:55;;;;;;;;;16.00;13.60;;;;;25.99;100.00;101375.53;4928766;28;44661;-89
2022/07/22 09:06:21;;;;;;;;;17.60;16.40;;;;;26.06;100.00;101370.16;4945934;28;44669;-88
2022/07/22 09:08:54;;;;;;;;;16.60;15.20;;;;;26.03;100.00;101356.94;4957122;28;44786;-88
2022/07/22 09:11:22;;;;;;;;;17.80;14.60;;;;;25.95;100.00;101363.31;4942069;28;45209;-89
2022/07/22 09:13:49;;;;;;;;;17.60;16.40;;;;;26.14;100.00;101370.91;4941323;28;44801;-89
2022/07/22 09:16:14;;;;;;;;;20.40;14.00;;;;;26.28;100.00;101374.66;4938984;28;44813;-88
2022/07/22 09:18:47;;;;;;;;;13.25;13.25;;;;;26.01;100.00;101381.63;4941825;28;44845;-88
2022/07/22 09:21:13;;;;;;;;;16.40;14.60;;;;;25.93;100.00;101394.50;4941437;28;45153;-87
2022/07/22 09:23:41;;;;;;;;;23.00;16.20;;;;;26.12;100.00;101405.66;4941199;28;44757;-88
2022/07/22 09:26:07;;;;;;;;;16.00;14.20;;;;;26.36;100.00;101399.06;4948870;28;44705;-87
2022/07/22 09:28:32;;;;;;;;;19.75;17.50;;;;;26.58;100.00;101420.94;4948305;28;44851;-88
2022/07/22 09:31:25;;;;;;;;;22.75;20.50;;;;;26.94;100.00;101429.16;4952146;28;45177;-93
2022/07/22 09:37:15;;;;;;;;;20.20;19.80;;;;;27.38;100.00;101428.97;4950364;28;44806;-93
2022/07/22 09:39:40;;;;;;;;;17.50;16.75;;;;;27.40;100.00;101417.84;4944927;28;44874;-93
2022/07/22 09:45:31;;;;;;;;;24.60;16.20;;;;;28.06;100.00;101390.22;4954793;28;44618;-92
2022/07/22 09:47:58;;;;;;;;;17.40;17.00;;;;;28.04;100.00;101382.19;4953055;28;44752;-88
2022/07/22 09:50:32;;;;;;;;;37.75;34.00;;;;;28.14;100.00;101398.22;4943943;28;45164;-88
2022/07/22 09:52:59;;;;;;;;;17.20;12.40;;;;;28.34;100.00;101396.47;4941861;28;45018;-88
2022/07/22 09:55:27;;;;;;;;;20.60;17.40;;;;;28.54;100.00;101384.78;4940518;28;45315;-88
2022/07/22 09:57:55;;;;;;;;;19.00;17.20;;;;;28.52;100.00;101386.84;4943731;28;44752;-88
2022/07/22 10:00:23;;;;;;;;;28.50;25.00;;;;;28.46;100.00;101396.72;4951744;28;44860;-88
2022/07/22 10:02:58;;;;;;;;;23.00;23.00;;;;;28.46;100.00;101402.19;4958204;28;45340;-92
2022/07/22 10:05:30;;;;;;;;;22.20;21.40;;;;;28.42;100.00;101396.28;4959158;28;44601;-93
2022/07/22 10:07:57;;;;;;;;;48.00;38.25;;;;;28.48;100.00;101388.31;4951530;28;44689;-93
2022/07/22 10:10:28;;;;;;;;;60.00;48.67;;;;;28.33;100.00;101393.91;4949511;28;44928;-93
2022/07/22 10:12:56;;;;;;;;;42.00;33.67;;;;;28.02;100.00;101392.50;4959104;28;45229;-88
2022/07/22 10:15:24;;;;;;;;;41.50;34.50;;;;;27.84;100.00;101393.00;4973145;28;44941;-87
2022/07/22 10:17:52;;;;;;;;;39.00;33.25;;;;;27.72;100.00;101385.59;4952469;28;44799;-88
2022/07/22 10:20:21;;;;;;;;;31.50;30.25;;;;;27.48;100.00;101389.59;4963469;28;44980;-88
2022/07/22 10:22:49;;;;;;;;;30.00;30.00;;;;;27.40;100.00;101391.41;4947351;28;46945;-88
2022/07/22 10:25:15;;;;;;;;;31.20;27.80;;;;;27.36;100.00;101390.09;4948008;28;44800;-89
2022/07/22 10:27:53;;;;;;;;;53.75;44.50;;;;;27.07;100.00;101388.34;4946526;28;44800;-88
2022/07/22 10:30:45;;;;;;;;;29.75;28.00;;;;;26.60;100.00;101384.31;4946782;28;44906;-89
2022/07/22 10:33:17;;;;;;;;;47.50;39.75;;;;;26.39;100.00;101368.69;4941978;28;46766;-88
2022/07/22 10:35:42;;;;;;;;;47.75;38.50;;;;;26.07;100.00;101360.97;4962854;28;44811;-88
2022/07/22 10:38:09;;;;;;;;;49.33;39.67;;;;;25.84;100.00;101353.75;4948305;28;44804;-89
2022/07/22 10:40:50;;;;;;;;;30.00;27.25;;;;;25.56;100.00;101358.09;4945697;28;44896;-88
2022/07/22 10:43:20;;;;;;;;;39.50;31.50;;;;;25.33;100.00;101348.13;4950408;28;45011;-88
2022/07/22 10:46:02;;;;;;;;;34.00;28.25;;;;;25.07;100.00;101334.09;4942019;28;44758;-87
2022/07/22 10:48:36;;;;;;;;;28.25;27.25;;;;;24.81;100.00;101312.69;4941517;28;45326;-86
2022/07/22 10:51:09;;;;;;;;;25.50;25.50;;;;;24.58;100.00;101272.78;4941591;28;44783;-87
2022/07/22 10:53:55;;;;;;;;;28.75;22.50;;;;;24.37;100.00;101269.88;4942678;28;45411;-87
2022/07/22 10:56:24;;;;;;;;;23.80;20.40;;;;;24.19;100.00;101277.44;4940303;28;45373;-86
2022/07/22 10:59:10;;;;;;;;;20.80;18.20;;;;;24.00;100.00;101297.72;4943276;28;44850;-87
2022/07/22 11:01:38;;;;;;;;;22.75;22.75;;;;;23.97;100.00;101298.91;4939390;28;44769;-87
2022/07/22 11:04:16;;;;;;;;;41.00;34.25;;;;;23.85;100.00;101305.75;4940071;28;45363;-86
2022/07/22 11:06:42;;;;;;;;;35.80;28.00;;;;;23.85;100.00;101301.16;4943576;28;44756;-86
2022/07/22 11:09:10;;;;;;;;;28.25;26.25;;;;;23.93;100.00;101280.44;4945442;28;45480;-86
2022/07/22 11:11:38;;;;;;;;;23.25;19.75;;;;;24.09;100.00;101259.50;4953766;28;45218;-91
2022/07/22 11:14:11;;;;;;;;;30.25;27.50;;;;;24.21;100.00;101249.06;4954598;28;45222;-92
2022/07/22 11:16:38;;;;;;;;;38.00;30.00;;;;;24.39;100.00;101254.25;4955268;28;44641;-92
2022/07/22 11:19:03;;;;;;;;;25.40;22.00;;;;;24.52;100.00;101240.91;4960810;28;44750;-91
2022/07/22 11:21:32;;;;;;;;;18.00;16.50;;;;;24.76;100.00;101231.72;4953242;28;44874;-91
2022/07/22 11:24:01;;;;;;;;;28.25;23.50;;;;;24.92;100.00;101236.16;4943860;28;45357;-91
2022/07/22 11:26:44;;;;;;;;;33.00;25.25;;;;;25.06;100.00;101254.38;4961641;28;44873;-90